Share

Sylvania, GA (30467)

Plantation (KJYL) Elev 187 ft | 32.65 °N, 81.60 °W | Change Station

Current weather conditions updated 16 minutes ago

Overcast
Overcast
60 °F
Feels Like 60 °F
N
8
Wind Variable Wind from ENE
Gusts 18 mph
Sunrise 6:52 AM
Sunset 7:59 PM
Moon Waning Gibbous

Today is forecast to be nearly the same temperature as yesterday. Occasional showers possible.

Pressure 30.00 in
Visibility 10.0 miles
Clouds Overcast 700 ft
Dew Point 56 °F
Humidity 88%
Rainfall 0.00 in
Snow Depth Not available.
UV 3 out of 16
Pollen 3.50 out of 12
Air Quality Not available.
Flu Activity Sporadic
METAR KJYL 191615Z AUTO 06007G16KT 10SM OVC007 15/14 A3000 RMK AO2 T01540135

More Conditions Fewer Conditions

Pressure 30.00 in
Visibility 10.0 miles
Clouds Overcast 700 ft
Dew Point 56 °F
Humidity 88%
Rainfall 0.00 in
Snow Depth Not available.
UV 3 out of 16
Pollen 3.50 out of 12
Air Quality Not available.
Flu Activity Sporadic
METAR KJYL 191615Z AUTO 06007G16KT 10SM OVC007 15/14 A3000 RMK AO2 T01540135

More Conditions Fewer Conditions

10-Day Weather Forecast

Almanac

Astronomy

Apr. 19, 2014 Rise Set
Actual Time 6:52 AM EDT 7:59 PM EDT
Civil Twilight 6:26 AM EDT 8:25 PM EDT
Nautical Twilight 5:56 AM EDT 8:55 PM EDT
Astronomical Twilight 5:25 AM EDT 9:27 PM EDT
Moon No Moon Rise 10:16 AM EDT
Length of Visible Light 13h 58m
Length of Day
13h 07m
Tomorrow will be 1m 52s longer.
Waning Gibbous, 78% of the Moon is Illuminated
Today
Waning Gibbous
Apr 22
Last Quarter
Apr 29
New
May 6
First Quarter
May 14
Full

Today's Extremes

State Highs State Lows

Community

  • A Glorious Morning
    A Glorious Morning
  • Tender Rays Of Hope
    Tender Rays Of Hope
  • Bleeding Hearts
    Bleeding Hearts
  • Sunset Silhouettes
    Sunset Silhouettes
  • FL sunset Perico Isle
    FL sunset Perico Isle

WunderPhotos

Upload Photos

1,702,796 photos uploaded!

WunderBlogs® & News

Nearby

Snow Depth

Station Depth Elevation
No new snow has been reported.

Coastal Water Temperatures

Place Temperature
No Stations Reporting

Earthquake Activity

City Distance Mag. Time & Date
No recent earthquake activity has been reported nearby.
Minimum magnitude displayed is 2.5.

Nearby Weather Stations

There are no personal weather stations in this area.

What do you think?

We're not finished. Please let us know what you like, what you don't like, and what you are still missing.